sensor_id;sensor_type;location;lat;lon;timestamp;pressure;altitude;pressure_sealevel;temperature;humidity
72118;BME280;59992;47.490;8.736;2023-03-04T00:00:02;97027.94;;;0.42;86.19
72118;BME280;59992;47.490;8.736;2023-03-04T00:02:52;97029.20;;;0.35;85.49
72118;BME280;59992;47.490;8.736;2023-03-04T00:05:42;97033.42;;;0.24;88.54
72118;BME280;59992;47.490;8.736;2023-03-04T00:08:32;97030.70;;;0.14;89.09
72118;BME280;59992;47.490;8.736;2023-03-04T00:11:23;97031.89;;;0.07;89.18
72118;BME280;59992;47.490;8.736;2023-03-04T00:14:13;97032.92;;;-0.01;89.80
72118;BME280;59992;47.490;8.736;2023-03-04T00:17:03;97036.98;;;-0.04;89.72
72118;BME280;59992;47.490;8.736;2023-03-04T00:19:54;97035.86;;;-0.07;88.81
72118;BME280;59992;47.490;8.736;2023-03-04T00:22:45;97035.05;;;-0.12;88.72
72118;BME280;59992;47.490;8.736;2023-03-04T00:25:35;97038.18;;;-0.16;89.17
72118;BME280;59992;47.490;8.736;2023-03-04T00:28:25;97040.70;;;-0.22;89.44
72118;BME280;59992;47.490;8.736;2023-03-04T00:31:16;97039.61;;;-0.27;91.08
72118;BME280;59992;47.490;8.736;2023-03-04T00:34:06;97038.81;;;-0.29;90.95
72118;BME280;59992;47.490;8.736;2023-03-04T00:36:56;97038.38;;;-0.29;90.47
72118;BME280;59992;47.490;8.736;2023-03-04T00:39:49;97032.52;;;-0.35;90.34
72118;BME280;59992;47.490;8.736;2023-03-04T00:42:40;97037.06;;;-0.31;89.57
72118;BME280;59992;47.490;8.736;2023-03-04T00:45:30;97041.60;;;-0.32;90.42
72118;BME280;59992;47.490;8.736;2023-03-04T00:48:20;97040.62;;;-0.33;89.20
72118;BME280;59992;47.490;8.736;2023-03-04T00:51:10;97041.11;;;-0.36;89.07
72118;BME280;59992;47.490;8.736;2023-03-04T00:54:00;97039.05;;;-0.41;88.28
72118;BME280;59992;47.490;8.736;2023-03-04T00:56:50;97039.20;;;-0.45;89.74
72118;BME280;59992;47.490;8.736;2023-03-04T00:59:40;97038.52;;;-0.49;90.98
72118;BME280;59992;47.490;8.736;2023-03-04T01:02:31;97031.80;;;-0.49;90.83
72118;BME280;59992;47.490;8.736;2023-03-04T01:05:21;97032.18;;;-0.51;90.99
72118;BME280;59992;47.490;8.736;2023-03-04T01:08:12;97031.30;;;-0.51;90.52
72118;BME280;59992;47.490;8.736;2023-03-04T01:11:02;97031.89;;;-0.53;90.96
72118;BME280;59992;47.490;8.736;2023-03-04T01:13:52;97026.81;;;-0.55;90.66
72118;BME280;59992;47.490;8.736;2023-03-04T01:16:42;97026.39;;;-0.59;90.14
72118;BME280;59992;47.490;8.736;2023-03-04T01:19:33;97022.94;;;-0.62;90.61
72118;BME280;59992;47.490;8.736;2023-03-04T01:22:23;97017.70;;;-0.64;91.06
72118;BME280;59992;47.490;8.736;2023-03-04T01:25:13;97016.83;;;-0.65;90.29
72118;BME280;59992;47.490;8.736;2023-03-04T01:28:03;97015.70;;;-0.67;90.27
72118;BME280;59992;47.490;8.736;2023-03-04T01:30:53;97018.84;;;-0.68;90.38
72118;BME280;59992;47.490;8.736;2023-03-04T01:33:44;97016.95;;;-0.71;90.25
72118;BME280;59992;47.490;8.736;2023-03-04T01:36:34;97018.36;;;-0.76;90.92
72118;BME280;59992;47.490;8.736;2023-03-04T01:39:24;97010.48;;;-0.85;90.83
72118;BME280;59992;47.490;8.736;2023-03-04T01:42:19;97022.45;;;-0.85;92.43
72118;BME280;59992;47.490;8.736;2023-03-04T01:45:12;97011.97;;;-0.93;92.72
72118;BME280;59992;47.490;8.736;2023-03-04T01:48:02;97016.60;;;-0.88;92.64
72118;BME280;59992;47.490;8.736;2023-03-04T01:50:53;97014.61;;;-0.88;92.63
72118;BME280;59992;47.490;8.736;2023-03-04T01:53:43;97015.13;;;-0.87;91.98
72118;BME280;59992;47.490;8.736;2023-03-04T01:56:37;97014.80;;;-0.90;92.17
72118;BME280;59992;47.490;8.736;2023-03-04T01:59:30;97014.23;;;-0.91;91.92
72118;BME280;59992;47.490;8.736;2023-03-04T02:02:20;97013.42;;;-0.94;91.67
72118;BME280;59992;47.490;8.736;2023-03-04T02:05:11;97012.73;;;-0.98;92.71
72118;BME280;59992;47.490;8.736;2023-03-04T02:08:03;97009.13;;;-1.01;93.34
72118;BME280;59992;47.490;8.736;2023-03-04T02:10:54;97005.15;;;-1.05;93.19
72118;BME280;59992;47.490;8.736;2023-03-04T02:13:44;97007.52;;;-1.06;92.72
72118;BME280;59992;47.490;8.736;2023-03-04T02:16:34;97007.37;;;-1.07;92.91
72118;BME280;59992;47.490;8.736;2023-03-04T02:19:34;96998.77;;;-1.12;92.07
72118;BME280;59992;47.490;8.736;2023-03-04T02:22:29;97001.81;;;-1.08;91.81
72118;BME280;59992;47.490;8.736;2023-03-04T02:25:23;97000.02;;;-1.12;91.80
72118;BME280;59992;47.490;8.736;2023-03-04T02:28:15;96997.27;;;-1.16;92.21
72118;BME280;59992;47.490;8.736;2023-03-04T02:31:05;96996.63;;;-1.16;92.43
72118;BME280;59992;47.490;8.736;2023-03-04T02:33:58;96992.73;;;-1.17;92.28
72118;BME280;59992;47.490;8.736;2023-03-04T02:36:50;96991.91;;;-1.18;91.84
72118;BME280;59992;47.490;8.736;2023-03-04T02:39:42;96984.50;;;-1.26;92.04
72118;BME280;59992;47.490;8.736;2023-03-04T02:42:33;96987.31;;;-1.20;92.34
72118;BME280;59992;47.490;8.736;2023-03-04T02:45:39;96991.62;;;-1.19;92.07
72118;BME280;59992;47.490;8.736;2023-03-04T02:48:30;96991.81;;;-1.18;91.58
72118;BME280;59992;47.490;8.736;2023-03-04T02:51:20;96994.20;;;-1.18;91.02
72118;BME280;59992;47.490;8.736;2023-03-04T02:54:17;96995.73;;;-1.21;91.35
72118;BME280;59992;47.490;8.736;2023-03-04T02:57:08;96998.77;;;-1.22;91.62
72118;BME280;59992;47.490;8.736;2023-03-04T02:59:59;96994.54;;;-1.21;91.08
72118;BME280;59992;47.490;8.736;2023-03-04T03:02:49;96999.14;;;-1.22;91.03
72118;BME280;59992;47.490;8.736;2023-03-04T03:05:39;96993.93;;;-1.23;90.76
72118;BME280;59992;47.490;8.736;2023-03-04T03:08:29;96993.02;;;-1.25;90.71
72118;BME280;59992;47.490;8.736;2023-03-04T03:11:19;96993.19;;;-1.27;91.55
72118;BME280;59992;47.490;8.736;2023-03-04T03:14:10;96990.91;;;-1.27;91.19
72118;BME280;59992;47.490;8.736;2023-03-04T03:17:00;96990.59;;;-1.32;91.65
72118;BME280;59992;47.490;8.736;2023-03-04T03:19:50;96993.39;;;-1.31;91.70
72118;BME280;59992;47.490;8.736;2023-03-04T03:22:41;96988.98;;;-1.33;91.37
72118;BME280;59992;47.490;8.736;2023-03-04T03:25:31;96989.15;;;-1.35;91.53
72118;BME280;59992;47.490;8.736;2023-03-04T03:28:22;96989.26;;;-1.34;91.62
72118;BME280;59992;47.490;8.736;2023-03-04T03:31:12;96985.99;;;-1.36;91.76
72118;BME280;59992;47.490;8.736;2023-03-04T03:34:02;96987.41;;;-1.38;92.14
72118;BME280;59992;47.490;8.736;2023-03-04T03:36:52;96983.98;;;-1.38;91.99
72118;BME280;59992;47.490;8.736;2023-03-04T03:39:43;96987.26;;;-1.38;91.23
72118;BME280;59992;47.490;8.736;2023-03-04T03:42:33;96985.14;;;-1.40;91.07
72118;BME280;59992;47.490;8.736;2023-03-04T03:45:23;96984.71;;;-1.44;92.47
72118;BME280;59992;47.490;8.736;2023-03-04T03:48:13;96982.81;;;-1.47;92.64
72118;BME280;59992;47.490;8.736;2023-03-04T03:51:03;96986.25;;;-1.48;91.94
72118;BME280;59992;47.490;8.736;2023-03-04T03:53:54;96985.14;;;-1.52;92.40
72118;BME280;59992;47.490;8.736;2023-03-04T03:56:44;96979.20;;;-1.55;92.93
72118;BME280;59992;47.490;8.736;2023-03-04T03:59:34;96980.86;;;-1.55;92.85
72118;BME280;59992;47.490;8.736;2023-03-04T04:02:24;96982.86;;;-1.54;92.10
72118;BME280;59992;47.490;8.736;2023-03-04T04:05:14;96981.57;;;-1.53;91.42
72118;BME280;59992;47.490;8.736;2023-03-04T04:08:05;96981.74;;;-1.55;91.93
72118;BME280;59992;47.490;8.736;2023-03-04T04:10:55;96985.36;;;-1.54;91.64
72118;BME280;59992;47.490;8.736;2023-03-04T04:13:45;96982.66;;;-1.54;91.02
72118;BME280;59992;47.490;8.736;2023-03-04T04:16:35;96985.98;;;-1.58;91.16
72118;BME280;59992;47.490;8.736;2023-03-04T04:19:26;96984.80;;;-1.60;91.40
72118;BME280;59992;47.490;8.736;2023-03-04T04:22:18;96988.33;;;-1.59;91.22
72118;BME280;59992;47.490;8.736;2023-03-04T04:25:10;96989.16;;;-1.59;90.74
72118;BME280;59992;47.490;8.736;2023-03-04T04:28:00;96989.11;;;-1.61;91.11
72118;BME280;59992;47.490;8.736;2023-03-04T04:30:50;96991.66;;;-1.62;90.44
72118;BME280;59992;47.490;8.736;2023-03-04T04:33:40;96990.34;;;-1.66;90.76
72118;BME280;59992;47.490;8.736;2023-03-04T04:36:31;96989.38;;;-1.69;91.49
72118;BME280;59992;47.490;8.736;2023-03-04T04:39:21;96991.84;;;-1.70;90.88
72118;BME280;59992;47.490;8.736;2023-03-04T04:42:11;96991.16;;;-1.71;91.21
72118;BME280;59992;47.490;8.736;2023-03-04T04:45:01;96994.61;;;-1.73;91.28
72118;BME280;59992;47.490;8.736;2023-03-04T04:47:52;96997.11;;;-1.72;91.42
72118;BME280;59992;47.490;8.736;2023-03-04T04:50:45;96994.02;;;-1.71;91.44
72118;BME280;59992;47.490;8.736;2023-03-04T04:53:35;96996.67;;;-1.71;90.96
72118;BME280;59992;47.490;8.736;2023-03-04T04:56:26;96997.88;;;-1.71;91.03
72118;BME280;59992;47.490;8.736;2023-03-04T04:59:16;96996.30;;;-1.71;91.14
72118;BME280;59992;47.490;8.736;2023-03-04T05:02:06;96998.59;;;-1.70;91.14
72118;BME280;59992;47.490;8.736;2023-03-04T05:04:57;96998.70;;;-1.70;91.44
72118;BME280;59992;47.490;8.736;2023-03-04T05:07:47;96998.08;;;-1.70;90.50
72118;BME280;59992;47.490;8.736;2023-03-04T05:10:37;97001.92;;;-1.71;90.95
72118;BME280;59992;47.490;8.736;2023-03-04T05:13:27;97000.79;;;-1.71;91.34
72118;BME280;59992;47.490;8.736;2023-03-04T05:16:17;96999.42;;;-1.72;91.17
72118;BME280;59992;47.490;8.736;2023-03-04T05:19:08;96997.99;;;-1.73;91.51
72118;BME280;59992;47.490;8.736;2023-03-04T05:21:58;97002.64;;;-1.69;91.34
72118;BME280;59992;47.490;8.736;2023-03-04T05:24:48;97003.91;;;-1.68;90.99
72118;BME280;59992;47.490;8.736;2023-03-04T05:27:38;97003.57;;;-1.69;90.50
72118;BME280;59992;47.490;8.736;2023-03-04T05:30:28;97005.09;;;-1.70;90.12
72118;BME280;59992;47.490;8.736;2023-03-04T05:33:19;97005.58;;;-1.73;89.70
72118;BME280;59992;47.490;8.736;2023-03-04T05:36:09;97008.41;;;-1.77;89.82
72118;BME280;59992;47.490;8.736;2023-03-04T05:38:59;97013.16;;;-1.81;90.30
72118;BME280;59992;47.490;8.736;2023-03-04T05:41:50;97014.26;;;-1.82;89.99
72118;BME280;59992;47.490;8.736;2023-03-04T05:44:40;97016.50;;;-1.84;90.44
72118;BME280;59992;47.490;8.736;2023-03-04T05:47:30;97016.78;;;-1.87;90.62
72118;BME280;59992;47.490;8.736;2023-03-04T05:50:22;97013.79;;;-1.91;90.93
72118;BME280;59992;47.490;8.736;2023-03-04T05:53:12;97014.38;;;-1.93;92.45
72118;BME280;59992;47.490;8.736;2023-03-04T05:56:07;97016.19;;;-1.92;93.06
72118;BME280;59992;47.490;8.736;2023-03-04T05:58:58;97011.95;;;-1.90;93.02
72118;BME280;59992;47.490;8.736;2023-03-04T06:01:48;97011.29;;;-1.89;93.21
72118;BME280;59992;47.490;8.736;2023-03-04T06:04:38;97008.56;;;-1.85;92.76
72118;BME280;59992;47.490;8.736;2023-03-04T06:07:32;97009.33;;;-1.84;92.81
72118;BME280;59992;47.490;8.736;2023-03-04T06:10:22;97015.04;;;-1.81;92.82
72118;BME280;59992;47.490;8.736;2023-03-04T06:13:12;97020.58;;;-1.78;92.73
72118;BME280;59992;47.490;8.736;2023-03-04T06:16:03;97025.17;;;-1.76;92.67
72118;BME280;59992;47.490;8.736;2023-03-04T06:18:53;97032.05;;;-1.70;92.36
72118;BME280;59992;47.490;8.736;2023-03-04T06:21:43;97034.12;;;-1.62;93.33
72118;BME280;59992;47.490;8.736;2023-03-04T06:24:33;97037.70;;;-1.51;93.81
72118;BME280;59992;47.490;8.736;2023-03-04T06:27:23;97039.12;;;-1.40;93.55
72118;BME280;59992;47.490;8.736;2023-03-04T06:30:14;97043.02;;;-1.27;93.78
72118;BME280;59992;47.490;8.736;2023-03-04T06:33:04;97047.04;;;-1.12;93.25
72118;BME280;59992;47.490;8.736;2023-03-04T06:35:56;97051.60;;;-0.98;93.08
72118;BME280;59992;47.490;8.736;2023-03-04T06:38:46;97053.00;;;-0.85;92.97
72118;BME280;59992;47.490;8.736;2023-03-04T06:41:37;97052.14;;;-0.72;92.88
72118;BME280;59992;47.490;8.736;2023-03-04T06:44:27;97052.94;;;-0.59;93.05
72118;BME280;59992;47.490;8.736;2023-03-04T06:47:17;97054.89;;;-0.47;92.45
72118;BME280;59992;47.490;8.736;2023-03-04T06:50:10;97061.10;;;-0.34;92.32
72118;BME280;59992;47.490;8.736;2023-03-04T06:53:00;97065.52;;;-0.20;91.79
72118;BME280;59992;47.490;8.736;2023-03-04T06:55:51;97065.54;;;-0.08;91.47
72118;BME280;59992;47.490;8.736;2023-03-04T06:58:41;97065.63;;;0.02;90.87
72118;BME280;59992;47.490;8.736;2023-03-04T07:01:31;97069.97;;;0.12;91.12
72118;BME280;59992;47.490;8.736;2023-03-04T07:04:22;97067.41;;;0.24;91.08
72118;BME280;59992;47.490;8.736;2023-03-04T07:07:12;97069.30;;;0.35;90.50
72118;BME280;59992;47.490;8.736;2023-03-04T07:10:03;97070.11;;;0.40;90.21
72118;BME280;59992;47.490;8.736;2023-03-04T07:12:53;97070.80;;;0.50;90.32
72118;BME280;59992;47.490;8.736;2023-03-04T07:15:44;97072.34;;;0.60;89.71
72118;BME280;59992;47.490;8.736;2023-03-04T07:18:34;97070.27;;;0.62;89.29
72118;BME280;59992;47.490;8.736;2023-03-04T07:21:24;97073.67;;;0.65;89.47
72118;BME280;59992;47.490;8.736;2023-03-04T07:24:15;97075.90;;;0.72;89.80
72118;BME280;59992;47.490;8.736;2023-03-04T07:27:05;97077.05;;;0.82;89.10
72118;BME280;59992;47.490;8.736;2023-03-04T07:29:56;97079.76;;;0.88;88.90
72118;BME280;59992;47.490;8.736;2023-03-04T07:32:46;97081.98;;;0.89;88.75
72118;BME280;59992;47.490;8.736;2023-03-04T07:35:36;97083.62;;;0.96;88.69
72118;BME280;59992;47.490;8.736;2023-03-04T07:38:27;97086.30;;;1.01;89.06
72118;BME280;59992;47.490;8.736;2023-03-04T07:41:17;97084.13;;;1.10;88.71
72118;BME280;59992;47.490;8.736;2023-03-04T07:44:09;97081.31;;;1.21;88.50
72118;BME280;59992;47.490;8.736;2023-03-04T07:47:00;97084.78;;;1.34;87.69
72118;BME280;59992;47.490;8.736;2023-03-04T07:49:50;97088.05;;;1.45;86.25
72118;BME280;59992;47.490;8.736;2023-03-04T07:52:41;97092.54;;;1.54;85.68
72118;BME280;59992;47.490;8.736;2023-03-04T07:55:32;97094.86;;;1.69;85.46
72118;BME280;59992;47.490;8.736;2023-03-04T07:58:22;97094.36;;;1.73;85.92
72118;BME280;59992;47.490;8.736;2023-03-04T08:01:14;97086.98;;;1.83;85.86
72118;BME280;59992;47.490;8.736;2023-03-04T08:04:06;97084.52;;;1.99;85.42
72118;BME280;59992;47.490;8.736;2023-03-04T08:06:56;97085.72;;;2.15;85.28
72118;BME280;59992;47.490;8.736;2023-03-04T08:09:47;97088.58;;;2.28;84.33
72118;BME280;59992;47.490;8.736;2023-03-04T08:12:37;97090.26;;;2.44;83.92
72118;BME280;59992;47.490;8.736;2023-03-04T08:15:27;97089.77;;;2.57;82.39
72118;BME280;59992;47.490;8.736;2023-03-04T08:18:20;97090.05;;;2.78;83.41
72118;BME280;59992;47.490;8.736;2023-03-04T08:21:11;97087.33;;;2.91;81.61
72118;BME280;59992;47.490;8.736;2023-03-04T08:24:03;97086.19;;;2.99;80.39
72118;BME280;59992;47.490;8.736;2023-03-04T08:26:56;97087.13;;;3.06;80.32
72118;BME280;59992;47.490;8.736;2023-03-04T08:29:47;97085.08;;;3.23;80.25
72118;BME280;59992;47.490;8.736;2023-03-04T08:32:37;97078.58;;;3.37;79.98
72118;BME280;59992;47.490;8.736;2023-03-04T08:35:28;97080.98;;;3.60;80.17
72118;BME280;59992;47.490;8.736;2023-03-04T08:38:18;97077.43;;;3.85;78.60
72118;BME280;59992;47.490;8.736;2023-03-04T08:41:08;97082.16;;;4.13;78.80
72118;BME280;59992;47.490;8.736;2023-03-04T08:43:58;97084.77;;;4.38;77.48
72118;BME280;59992;47.490;8.736;2023-03-04T08:46:49;97083.46;;;4.64;77.11
72118;BME280;59992;47.490;8.736;2023-03-04T08:49:39;97082.68;;;4.93;74.36
72118;BME280;59992;47.490;8.736;2023-03-04T08:52:30;97081.80;;;5.20;74.75
72118;BME280;59992;47.490;8.736;2023-03-04T08:55:21;97081.13;;;5.53;73.12
72118;BME280;59992;47.490;8.736;2023-03-04T08:58:11;97080.59;;;5.78;72.25
72118;BME280;59992;47.490;8.736;2023-03-04T09:01:02;97078.27;;;5.94;70.68
72118;BME280;59992;47.490;8.736;2023-03-04T09:03:52;97077.58;;;6.08;70.53
72118;BME280;59992;47.490;8.736;2023-03-04T09:06:43;97079.24;;;6.21;70.02
72118;BME280;59992;47.490;8.736;2023-03-04T09:09:33;97082.80;;;6.27;69.36
72118;BME280;59992;47.490;8.736;2023-03-04T09:12:23;97076.60;;;6.32;68.51
72118;BME280;59992;47.490;8.736;2023-03-04T09:15:14;97076.08;;;6.30;68.28
72118;BME280;59992;47.490;8.736;2023-03-04T09:18:05;97070.88;;;6.30;68.46
72118;BME280;59992;47.490;8.736;2023-03-04T09:20:55;97064.81;;;6.45;72.22
72118;BME280;59992;47.490;8.736;2023-03-04T09:23:46;97071.38;;;6.58;69.11
72118;BME280;59992;47.490;8.736;2023-03-04T09:26:36;97070.95;;;6.65;68.36
72118;BME280;59992;47.490;8.736;2023-03-04T09:29:26;97070.49;;;6.71;68.97
72118;BME280;59992;47.490;8.736;2023-03-04T09:32:17;97065.04;;;6.68;67.64
72118;BME280;59992;47.490;8.736;2023-03-04T09:35:08;97066.50;;;6.75;68.62
72118;BME280;59992;47.490;8.736;2023-03-04T09:37:59;97063.16;;;6.81;67.91
72118;BME280;59992;47.490;8.736;2023-03-04T09:40:49;97061.50;;;6.87;66.71
72118;BME280;59992;47.490;8.736;2023-03-04T09:43:40;97059.55;;;6.89;67.13
72118;BME280;59992;47.490;8.736;2023-03-04T09:46:14;97062.35;;;6.93;66.14
72118;BME280;59992;47.490;8.736;2023-03-04T09:48:47;97054.75;;;6.96;67.00
72118;BME280;59992;47.490;8.736;2023-03-04T09:51:22;97060.98;;;7.11;69.39
72118;BME280;59992;47.490;8.736;2023-03-04T09:54:06;97056.98;;;7.13;67.82
72118;BME280;59992;47.490;8.736;2023-03-04T09:56:38;97057.80;;;7.19;67.38
72118;BME280;59992;47.490;8.736;2023-03-04T09:59:16;97049.30;;;7.24;66.00
72118;BME280;59992;47.490;8.736;2023-03-04T10:01:52;97048.56;;;7.36;67.31
72118;BME280;59992;47.490;8.736;2023-03-04T10:04:29;97048.36;;;7.48;68.19
72118;BME280;59992;47.490;8.736;2023-03-04T10:07:02;97047.80;;;7.56;65.79
72118;BME280;59992;47.490;8.736;2023-03-04T10:09:42;97045.77;;;7.61;66.21
72118;BME280;59992;47.490;8.736;2023-03-04T10:12:20;97044.58;;;7.56;64.70
72118;BME280;59992;47.490;8.736;2023-03-04T10:14:53;97042.00;;;7.56;64.23
72118;BME280;59992;47.490;8.736;2023-03-04T10:17:32;97043.75;;;7.67;67.05
72118;BME280;59992;47.490;8.736;2023-03-04T10:20:09;97038.89;;;7.79;68.56
72118;BME280;59992;47.490;8.736;2023-03-04T10:22:43;97039.48;;;7.91;66.76
72118;BME280;59992;47.490;8.736;2023-03-04T10:25:21;97033.52;;;7.93;63.95
72118;BME280;59992;47.490;8.736;2023-03-04T10:27:54;97032.29;;;7.95;63.98
72118;BME280;59992;47.490;8.736;2023-03-04T10:30:35;97033.04;;;7.99;66.01
72118;BME280;59992;47.490;8.736;2023-03-04T10:33:12;97036.16;;;8.03;66.51
72118;BME280;59992;47.490;8.736;2023-03-04T10:35:47;97033.74;;;8.03;65.58
72118;BME280;59992;47.490;8.736;2023-03-04T10:38:20;97027.58;;;7.98;63.97
72118;BME280;59992;47.490;8.736;2023-03-04T10:40:50;97030.70;;;8.10;67.92
72118;BME280;59992;47.490;8.736;2023-03-04T10:43:21;97029.68;;;8.14;65.93
72118;BME280;59992;47.490;8.736;2023-03-04T10:45:55;97022.85;;;8.14;64.12
72118;BME280;59992;47.490;8.736;2023-03-04T10:48:29;97023.68;;;8.19;66.19
72118;BME280;59992;47.490;8.736;2023-03-04T10:51:12;97021.46;;;8.13;63.72
72118;BME280;59992;47.490;8.736;2023-03-04T10:53:48;97021.13;;;8.22;65.76
72118;BME280;59992;47.490;8.736;2023-03-04T10:56:37;97018.34;;;8.30;66.39
72118;BME280;59992;47.490;8.736;2023-03-04T10:59:28;97021.50;;;8.32;65.82
72118;BME280;59992;47.490;8.736;2023-03-04T11:02:00;97011.92;;;8.35;65.05
72118;BME280;59992;47.490;8.736;2023-03-04T11:04:33;97007.73;;;8.39;65.75
72118;BME280;59992;47.490;8.736;2023-03-04T11:07:08;97007.91;;;8.35;64.42
72118;BME280;59992;47.490;8.736;2023-03-04T11:09:39;97003.21;;;8.36;65.15
72118;BME280;59992;47.490;8.736;2023-03-04T11:12:13;97001.27;;;8.37;63.95
72118;BME280;59992;47.490;8.736;2023-03-04T11:14:46;96996.63;;;8.35;64.34
72118;BME280;59992;47.490;8.736;2023-03-04T11:17:21;96989.71;;;8.32;63.80
72118;BME280;59992;47.490;8.736;2023-03-04T11:19:55;96989.54;;;8.31;64.30
72118;BME280;59992;47.490;8.736;2023-03-04T11:22:26;96986.66;;;8.33;63.76
72118;BME280;59992;47.490;8.736;2023-03-04T11:25:00;96983.29;;;8.31;64.74
72118;BME280;59992;47.490;8.736;2023-03-04T11:27:40;96985.05;;;8.27;64.96
72118;BME280;59992;47.490;8.736;2023-03-04T11:30:28;96982.66;;;8.15;64.73
72118;BME280;59992;47.490;8.736;2023-03-04T11:33:08;96975.69;;;8.04;63.18
72118;BME280;59992;47.490;8.736;2023-03-04T11:35:44;96973.12;;;8.01;64.46
72118;BME280;59992;47.490;8.736;2023-03-04T11:38:19;96971.77;;;8.02;64.92
72118;BME280;59992;47.490;8.736;2023-03-04T11:40:52;96970.59;;;8.05;63.56
72118;BME280;59992;47.490;8.736;2023-03-04T11:43:27;96968.57;;;8.11;63.88
72118;BME280;59992;47.490;8.736;2023-03-04T11:46:09;96967.63;;;8.17;64.73
72118;BME280;59992;47.490;8.736;2023-03-04T11:49:11;96968.09;;;8.20;64.37
72118;BME280;59992;47.490;8.736;2023-03-04T11:52:08;96962.21;;;8.18;63.23
72118;BME280;59992;47.490;8.736;2023-03-04T11:55:20;96961.92;;;8.21;63.92
72118;BME280;59992;47.490;8.736;2023-03-04T11:58:29;96950.66;;;8.20;63.64
72118;BME280;59992;47.490;8.736;2023-03-04T12:01:25;96958.11;;;8.40;64.53
72118;BME280;59992;47.490;8.736;2023-03-04T12:04:38;96949.75;;;8.54;61.75
72118;BME280;59992;47.490;8.736;2023-03-04T12:10:51;96939.19;;;8.89;62.39
72118;BME280;59992;47.490;8.736;2023-03-04T12:13:55;96937.58;;;9.03;63.52
72118;BME280;59992;47.490;8.736;2023-03-04T12:17:00;96932.19;;;9.08;58.91
72118;BME280;59992;47.490;8.736;2023-03-04T12:20:07;96929.63;;;9.09;58.92
72118;BME280;59992;47.490;8.736;2023-03-04T12:23:14;96927.25;;;9.23;60.16
72118;BME280;59992;47.490;8.736;2023-03-04T12:26:16;96925.90;;;9.36;58.65
72118;BME280;59992;47.490;8.736;2023-03-04T12:29:17;96919.20;;;9.48;60.84
72118;BME280;59992;47.490;8.736;2023-03-04T12:32:16;96907.99;;;9.50;60.02
72118;BME280;59992;47.490;8.736;2023-03-04T12:35:35;96902.63;;;9.50;58.77
72118;BME280;59992;47.490;8.736;2023-03-04T12:38:49;96898.69;;;9.56;58.34
72118;BME280;59992;47.490;8.736;2023-03-04T12:41:47;96897.00;;;9.58;58.91
72118;BME280;59992;47.490;8.736;2023-03-04T12:44:44;96896.69;;;9.54;58.33
72118;BME280;59992;47.490;8.736;2023-03-04T12:47:45;96892.49;;;9.47;58.86
72118;BME280;59992;47.490;8.736;2023-03-04T12:50:45;96890.38;;;9.43;59.89
72118;BME280;59992;47.490;8.736;2023-03-04T12:53:47;96883.61;;;9.38;60.50
72118;BME280;59992;47.490;8.736;2023-03-04T12:56:43;96881.28;;;9.35;59.82
72118;BME280;59992;47.490;8.736;2023-03-04T12:59:39;96876.45;;;9.39;60.19
72118;BME280;59992;47.490;8.736;2023-03-04T13:02:50;96867.59;;;9.42;58.86
72118;BME280;59992;47.490;8.736;2023-03-04T13:05:54;96866.60;;;9.38;56.21
72118;BME280;59992;47.490;8.736;2023-03-04T13:08:55;96860.91;;;9.43;56.64
72118;BME280;59992;47.490;8.736;2023-03-04T13:12:01;96853.59;;;9.37;54.72
72118;BME280;59992;47.490;8.736;2023-03-04T13:15:24;96857.19;;;9.43;55.69
72118;BME280;59992;47.490;8.736;2023-03-04T13:18:34;96859.30;;;9.53;56.12
72118;BME280;59992;47.490;8.736;2023-03-04T13:21:28;96852.61;;;9.55;56.61
72118;BME280;59992;47.490;8.736;2023-03-04T13:24:45;96851.34;;;9.62;56.30
72118;BME280;59992;47.490;8.736;2023-03-04T13:27:48;96844.48;;;9.63;54.54
72118;BME280;59992;47.490;8.736;2023-03-04T13:34:03;96835.55;;;9.71;56.56
72118;BME280;59992;47.490;8.736;2023-03-04T13:36:56;96831.35;;;9.76;56.16
72118;BME280;59992;47.490;8.736;2023-03-04T13:43:32;96827.94;;;9.68;54.44
72118;BME280;59992;47.490;8.736;2023-03-04T13:46:39;96825.94;;;9.74;57.20
72118;BME280;59992;47.490;8.736;2023-03-04T13:49:30;96823.70;;;9.72;57.44
72118;BME280;59992;47.490;8.736;2023-03-04T13:52:40;96826.70;;;9.67;55.00
72118;BME280;59992;47.490;8.736;2023-03-04T13:55:40;96820.44;;;9.60;53.62
72118;BME280;59992;47.490;8.736;2023-03-04T13:58:32;96819.16;;;9.68;55.67
72118;BME280;59992;47.490;8.736;2023-03-04T14:01:25;96815.23;;;9.72;55.01
72118;BME280;59992;47.490;8.736;2023-03-04T14:04:19;96816.20;;;9.75;54.37
72118;BME280;59992;47.490;8.736;2023-03-04T14:07:22;96816.95;;;9.82;55.83
72118;BME280;59992;47.490;8.736;2023-03-04T14:10:23;96812.75;;;9.88;54.38
72118;BME280;59992;47.490;8.736;2023-03-04T14:13:14;96811.82;;;9.94;55.72
72118;BME280;59992;47.490;8.736;2023-03-04T14:16:04;96815.01;;;9.98;53.77
72118;BME280;59992;47.490;8.736;2023-03-04T14:19:00;96815.95;;;9.92;52.47
72118;BME280;59992;47.490;8.736;2023-03-04T14:21:51;96809.61;;;10.01;55.34
72118;BME280;59992;47.490;8.736;2023-03-04T14:24:53;96811.41;;;10.04;53.71
72118;BME280;59992;47.490;8.736;2023-03-04T14:27:46;96807.93;;;10.00;51.99
72118;BME280;59992;47.490;8.736;2023-03-04T14:30:37;96802.37;;;10.02;52.46
72118;BME280;59992;47.490;8.736;2023-03-04T14:33:29;96803.30;;;10.04;53.51
72118;BME280;59992;47.490;8.736;2023-03-04T14:36:21;96801.14;;;10.05;51.93
72118;BME280;59992;47.490;8.736;2023-03-04T14:39:17;96793.71;;;10.05;52.11
72118;BME280;59992;47.490;8.736;2023-03-04T14:42:11;96792.72;;;10.00;51.92
72118;BME280;59992;47.490;8.736;2023-03-04T14:45:03;96791.31;;;9.97;52.48
72118;BME280;59992;47.490;8.736;2023-03-04T14:47:57;96785.61;;;9.96;53.93
72118;BME280;59992;47.490;8.736;2023-03-04T14:50:50;96786.54;;;9.97;53.93
72118;BME280;59992;47.490;8.736;2023-03-04T14:53:54;96778.86;;;9.92;52.12
72118;BME280;59992;47.490;8.736;2023-03-04T14:56:44;96778.48;;;9.92;52.48
72118;BME280;59992;47.490;8.736;2023-03-04T14:59:36;96774.91;;;9.90;53.46
72118;BME280;59992;47.490;8.736;2023-03-04T15:02:28;96773.26;;;9.87;51.87
72118;BME280;59992;47.490;8.736;2023-03-04T15:05:26;96762.99;;;9.76;51.38
72118;BME280;59992;47.490;8.736;2023-03-04T15:08:23;96766.71;;;9.77;51.60
72118;BME280;59992;47.490;8.736;2023-03-04T15:11:22;96765.48;;;9.80;53.33
72118;BME280;59992;47.490;8.736;2023-03-04T15:14:45;96763.98;;;9.81;53.96
72118;BME280;59992;47.490;8.736;2023-03-04T15:17:37;96761.69;;;9.80;53.07